Flight Track Log - Related Links

Times and Time Zones

All times are in EDT time to prevent confusion due to time zone crossing. See the N76AD flight status page for this flight to view local times or setup timezone preferences in your user account.


Time Position Orientation Groundspeed Altitude Reporting Facility
EDT Latitude Longitude Course Direction KTS MPH feet Rate Location/Type
Tue 12:06:35 PM 41.4075 -71.3772 248° West 113 130 4,500  Level Boston Center
Tue 12:07:36 PM 41.3933 -71.4136 243° Southwest 114 131 4,500  Level Boston Center
Tue 12:08:37 PM 41.3833 -71.4553 252° West 114 131 4,500  Level Boston Center
Tue 12:09:44 PM 41.3733 -71.4994 253° West 117 135 4,500  Level Boston Center
Tue 12:10:39 PM 41.3672 -71.5356 257° West 112 129 4,500  Level Boston Center
Tue 12:11:33 PM 41.3614 -71.5717 258° West 116 133 4,500  Level Boston Center
Tue 12:12:00 PM 41.3768 -71.4330 248° West  Level Estimated
Tue 12:12:34 PM 41.3533 -71.6161 256° West 113 130 4,500  Level Boston Center
Tue 12:13:30 PM 41.3431 -71.6547 250° West 119 137 4,500  Level Boston Center
Tue 12:14:31 PM 41.3350 -71.6964 256° West 115 132 4,500  Level Boston Center
Tue 12:15:25 PM 41.3269 -71.7325 253° West 120 138 4,500  Level Boston Center
Tue 12:16:25 PM 41.3211 -71.7739 259° West 113 130 4,500  Level Boston Center
Tue 12:17:44 PM 41.3131 -71.8322 260° West 111 128 4,500  Level Boston Center
Tue 12:18:32 PM 41.3069 -71.8653 256° West 114 131 4,500 -58 Level Boston Center
Tue 12:19:27 PM 41.3008 -71.9014 257° West 121 139 4,400 -51 Descending Boston Center
Tue 12:20:30 PM 41.2906 -71.9400 251° West 113 130 4,400  Level Boston Center
Tue 12:21:49 PM 41.2700 -71.9872 240° Southwest 114 131 4,400  Level Boston Center
Tue 12:22:55 PM 41.2533 -72.0314 243° Southwest 115 132 4,400 48 Level Boston Center
Tue 12:23:55 PM 41.2431 -72.0703 251° West 115 132 4,500  Climbing Boston Center
Tue 12:24:56 PM 41.2267 -72.1061 239° Southwest 113 130 4,400  Descending Boston Center
Tue 12:25:56 PM 41.2100 -72.1450 240° Southwest 114 131 4,500 30 Climbing Boston Center
Tue 12:28:19 PM 41.1833 -72.2333 248° West 116 133 4,500  Level New York TRACON
Tue 12:29:25 PM 41.1667 -72.2833 246° West 114 131 4,500  Level New York TRACON
Tue 12:30:25 PM 41.1500 -72.3167 236° Southwest 118 136 4,500  Level New York TRACON
Tue 12:31:26 PM 41.1333 -72.3500 236° Southwest 116 133 4,500  Level New York TRACON
Tue 12:32:26 PM 41.1333 -72.4000 270° West 114 131 4,500 -50 Level New York TRACON
Tue 12:33:25 PM 41.1167 -72.4333 236° Southwest 114 131 4,400  Descending New York TRACON
Tue 12:34:25 PM 41.1000 -72.4667 236° Southwest 113 130 4,500 -50 Climbing New York TRACON
Tue 12:35:25 PM 41.0833 -72.5000 236° Southwest 120 138 4,300 -149 Descending New York TRACON
Tue 12:36:26 PM 41.0667 -72.5500 246° West 119 137 4,200 -50 Descending New York TRACON
Tue 12:37:26 PM 41.0667 -72.5833 270° West 119 137 4,200  Level New York TRACON
Tue 12:38:26 PM 41.0500 -72.6333 246° West 119 137 4,200 -92 Level New York TRACON
Tue 12:39:37 PM 41.0500 -72.6833 270° West 123 142 4,000 -96 Descending New York TRACON
Tue 12:40:31 PM 41.0500 -72.7167 270° West 121 139 4,000 -316 Level New York TRACON
Tue 12:41:31 PM 41.0333 -72.7667 246° West 120 138 3,400 -496 Descending New York TRACON
Tue 12:42:32 PM 41.0333 -72.8167 270° West 126 145 3,000 -347 Descending New York TRACON
Tue 12:43:32 PM 41.0167 -72.8500 236° Southwest 121 139 2,700 -250 Descending New York TRACON
Tue 12:44:32 PM 41.0167 -72.9000 270° West 117 135 2,500 -158 Descending New York TRACON
Tue 12:45:26 PM 41.0000 -72.9333 236° Southwest 110 127 2,400  Descending New York TRACON
Tue 12:46:32 PM 41.0000 -72.9667 270° West 120 138 2,500  Climbing New York TRACON
Tue 12:47:26 PM 41.0000 -73.0167 270° West 114 131 2,400  Descending New York TRACON
Tue 12:48:26 PM 40.9833 -73.0500 236° Southwest 112 129 2,500 50 Climbing New York TRACON
Tue 12:49:26 PM 40.9833 -73.0833 270° West 109 125 2,500  Level New York TRACON
Tue 12:50:26 PM 40.9667 -73.1333 246° West 111 128 2,500 -50 Level New York TRACON
Tue 12:51:26 PM 40.9667 -73.1667 270° West 114 131 2,400  Descending New York TRACON
Tue 12:52:26 PM 40.9667 -73.2167 270° West 110 127 2,500  Climbing New York TRACON
Tue 12:53:26 PM 40.9500 -73.2500 237° Southwest 111 128 2,400 -100 Descending New York TRACON
Tue 12:55:00 PM 40.9075 -73.2815 209° Southwest  Level Estimated
Tue 01:02:00 PM 40.7288 -73.4134 209° Southwest  Level Estimated
Tue 01:03:00 PM 40.7288 -73.4134 131° Southeast  Level Estimated
Tue 01:04:00 PM 40.7288 -73.4134 131° Southeast  Level Estimated
Tue 01:05:00 PM 40.7288 -73.4134 131° Southeast  Level Estimated
Tue 01:06:00 PM 40.7288 -73.4134 131° Southeast  Level Estimated
Tue 01:07:00 PM 40.7288 -73.4134 131° Southeast  Level Estimated
Tue 01:08:00 PM 40.7288 -73.4134 131° Southeast  Level Estimated
Tue 01:09:00 PM 40.7288 -73.4134 131° Southeast  Level Estimated
Tue 01:10:00 PM 40.7288 -73.4134 131° Southeast  Level Estimated
Tue 01:11:00 PM 40.7288 -73.4134 131° Southeast  Level Estimated
Tue 01:12:00 PM 40.7288 -73.4134 131° Southeast  Level Estimated
Tue 01:13:00 PM 40.7288 -73.4134 131° Southeast  Level Estimated
Tue 01:14:00 PM 40.7288 -73.4134 131° Southeast  Level Estimated
Tue 01:15:00 PM 40.7288 -73.4134 131° Southeast  Level Estimated
Tue 01:16:00 PM 40.7288 -73.4134 131° Southeast  Level Estimated
Tue 01:17:00 PM 40.7288 -73.4134 131° Southeast  Level Estimated
Tue 01:18:00 PM 40.7288 -73.4134 131° Southeast  Level Estimated
Tue 01:19:00 PM 40.7288 -73.4134 131° Southeast  Level Estimated
Tue 01:20:00 PM 40.7288 -73.4134 131° Southeast  Level Estimated

Login

Don't have an account? Register now (free) for customized features, flight alerts, and more!